Time;durP1;ratioP1;P1;durP2;ratioP2;P2;SDS_P1;SDS_P2;PMS_P1;PMS_P2;Temp;Humidity;BMP_temperature;BMP_pressure;BME280_temperature;BME280_humidity;BME280_pressure;Samples;Min_cycle;Max_cycle;Signal;HPM_P1;HPM_P2
2022/07/21 00:01:49;;;;;;;;;19.67;19.00;;;;;21.61;88.22;101591.47;5046659;28;45522;-75
2022/07/21 00:04:15;;;;;;;;;18.00;18.00;;;;;21.64;88.50;101585.63;5058704;28;45263;-75
2022/07/21 00:06:41;;;;;;;;;16.67;16.67;;;;;21.61;88.46;101588.78;5058917;28;45386;-75
2022/07/21 00:09:07;;;;;;;;;17.67;16.33;;;;;21.60;88.14;101563.59;5058978;28;45265;-75
2022/07/21 00:11:32;;;;;;;;;17.33;16.33;;;;;21.60;87.87;101560.06;5056528;28;46006;-75
2022/07/21 00:13:58;;;;;;;;;16.00;15.00;;;;;21.60;88.20;101560.06;5058840;28;45284;-75
2022/07/21 00:16:24;;;;;;;;;17.00;14.67;;;;;21.59;88.55;101561.13;5041014;28;45340;-75
2022/07/21 00:18:49;;;;;;;;;17.00;17.00;;;;;21.60;88.81;101557.34;5048245;28;45287;-75
2022/07/21 00:21:14;;;;;;;;;15.00;15.00;;;;;21.61;88.47;101561.72;5058466;28;45379;-75
2022/07/21 00:23:40;;;;;;;;;17.00;16.67;;;;;21.52;88.30;101553.91;5040606;28;47138;-75
2022/07/21 00:26:05;;;;;;;;;20.00;20.00;;;;;21.55;88.44;101560.78;5040775;28;45310;-75
2022/07/21 00:28:30;;;;;;;;;16.00;16.00;;;;;21.55;88.46;101560.78;5058832;28;45531;-75
2022/07/21 00:30:56;;;;;;;;;15.67;15.67;;;;;21.52;88.19;101553.91;5058771;28;45311;-75
2022/07/21 00:33:21;;;;;;;;;17.00;15.33;;;;;21.51;88.46;101544.16;5058572;28;45456;-75
2022/07/21 00:35:47;;;;;;;;;16.67;16.67;;;;;21.48;87.67;101550.03;5058350;28;45276;-75
2022/07/21 00:38:12;;;;;;;;;14.00;14.00;;;;;;;;5048063;28;45316;-75
2022/07/21 00:40:37;;;;;;;;;16.00;15.67;;;;;21.42;88.03;101551.75;5058487;28;45414;-75
2022/07/21 00:43:03;;;;;;;;;17.00;15.33;;;;;21.42;88.37;101551.75;5058667;28;45589;-75
2022/07/21 00:45:28;;;;;;;;;15.67;15.00;;;;;21.44;88.64;101551.53;5058650;28;45349;-75
2022/07/21 00:47:54;;;;;;;;;19.67;19.67;;;;;21.39;88.26;101548.69;5058887;28;45398;-75
2022/07/21 00:50:20;;;;;;;;;18.33;17.33;;;;;21.41;88.51;101554.69;5058064;28;45587;-75
2022/07/21 00:52:47;;;;;;;;;17.67;17.00;;;;;21.43;88.79;101558.81;5058251;28;45400;-75
2022/07/21 00:55:16;;;;;;;;;16.67;16.00;;;;;21.39;88.63;101559.50;5058421;28;45273;-75
2022/07/21 00:57:42;;;;;;;;;19.67;19.67;;;;;21.37;88.38;101567.81;5040277;28;45353;-75
2022/07/21 01:00:11;;;;;;;;;16.67;14.67;;;;;21.46;88.77;101560.22;5058251;28;45323;-75
2022/07/21 01:02:36;;;;;;;;;18.00;18.00;;;;;21.48;88.54;101574.34;5058116;28;45331;-75
2022/07/21 01:05:05;;;;;;;;;13.00;13.00;;;;;21.41;87.98;101557.41;5044407;28;45373;-75
2022/07/21 01:07:30;;;;;;;;;16.00;16.00;;;;;21.40;88.16;101561.97;5058380;28;45341;-75
2022/07/21 01:09:56;;;;;;;;;17.67;17.33;;;;;21.37;87.91;101562.41;5058189;28;45613;-75
2022/07/21 01:12:21;;;;;;;;;15.00;15.00;;;;;21.37;88.22;101561.63;5058139;28;45486;-75
2022/07/21 01:14:47;;;;;;;;;19.67;19.67;;;;;21.36;88.15;101565.34;5058090;28;45561;-75
2022/07/21 01:17:12;;;;;;;;;19.67;18.33;;;;;21.30;87.62;101561.69;5043699;28;45421;-75
2022/07/21 01:19:38;;;;;;;;;19.67;18.67;;;;;21.33;87.99;101563.13;5057807;28;45395;-75
2022/07/21 01:22:03;;;;;;;;;20.00;20.00;;;;;21.26;87.42;101555.91;5044866;28;46129;-75
2022/07/21 01:24:28;;;;;;;;;22.00;18.67;;;;;21.24;87.65;101559.88;5061366;28;45335;-75
2022/07/21 01:26:54;;;;;;;;;19.33;19.33;;;;;21.22;87.44;101553.91;5061596;28;45683;-75
2022/07/21 01:29:20;;;;;;;;;16.00;15.67;;;;;21.11;87.91;101552.75;5061501;28;45231;-75
2022/07/21 01:31:47;;;;;;;;;13.00;13.00;;;;;21.13;87.51;101565.00;5061269;28;46490;-75
2022/07/21 01:34:13;;;;;;;;;16.67;16.67;;;;;21.15;87.46;101560.19;5047208;28;45293;-75
2022/07/21 01:36:38;;;;;;;;;20.00;19.00;;;;;21.08;87.43;101534.28;5061293;28;45363;-75
2022/07/21 01:41:50;;;;;;;;;17.00;16.33;;;;;20.99;87.84;101531.06;5061268;28;45816;-75
2022/07/21 01:44:15;;;;;;;;;19.00;19.00;;;;;20.94;88.01;101524.47;5039464;28;46003;-75
2022/07/21 01:46:44;;;;;;;;;17.00;17.00;;;;;20.91;88.24;101530.31;5033489;28;45487;-75
2022/07/21 01:49:11;;;;;;;;;19.33;16.33;;;;;20.87;87.99;101525.56;5056815;28;46631;-75
2022/07/21 01:51:37;;;;;;;;;24.67;22.67;;;;;20.85;88.34;101533.88;5060766;28;45810;-75
2022/07/21 01:54:03;;;;;;;;;32.00;29.67;;;;;20.85;87.93;101544.69;5060782;28;45286;-75
2022/07/21 01:56:29;;;;;;;;;32.00;30.00;;;;;20.75;88.25;101537.13;5061365;28;45333;-75
2022/07/21 01:58:56;;;;;;;;;19.00;19.00;;;;;20.79;88.63;101540.19;5042729;28;46141;-75
2022/07/21 02:01:23;;;;;;;;;22.67;21.67;;;;;20.74;88.69;101543.56;5060646;28;45502;-75
2022/07/21 02:03:49;;;;;;;;;19.33;19.33;;;;;20.72;88.63;101542.97;5042850;28;45316;-75
2022/07/21 02:06:15;;;;;;;;;21.00;20.00;;;;;20.70;88.58;101545.06;5060628;28;45229;-75
2022/07/21 02:08:43;;;;;;;;;18.33;16.33;;;;;20.70;88.58;101550.47;5042686;28;46348;-75
2022/07/21 02:11:10;;;;;;;;;19.67;19.67;;;;;20.69;88.64;101541.53;5060550;28;45526;-75
2022/07/21 02:13:35;;;;;;;;;21.67;19.33;;;;;20.69;88.87;101551.50;5060819;28;45668;-75
2022/07/21 02:16:03;;;;;;;;;17.00;15.33;;;;;20.65;88.39;101550.31;5046244;28;45388;-74
2022/07/21 02:18:28;;;;;;;;;18.67;18.67;;;;;20.66;88.56;101552.78;5045577;28;47302;-75
2022/07/21 02:20:54;;;;;;;;;19.00;18.67;;;;;20.65;88.64;101553.81;5060404;28;45418;-75
2022/07/21 02:23:21;;;;;;;;;18.67;18.33;;;;;20.61;88.88;101554.47;5060225;28;45265;-74
2022/07/21 02:25:47;;;;;;;;;15.00;14.33;;;;;20.59;88.95;101556.59;5060909;28;45305;-75
2022/07/21 02:28:13;;;;;;;;;17.33;16.00;;;;;20.57;88.90;101567.63;5060333;28;45623;-75
2022/07/21 02:30:39;;;;;;;;;21.67;20.67;;;;;20.56;89.14;101563.25;5042243;28;46312;-75
2022/07/21 02:33:05;;;;;;;;;18.33;16.33;;;;;20.53;88.72;101556.41;5039118;28;45478;-75
2022/07/21 02:35:31;;;;;;;;;17.33;16.00;;;;;20.51;89.01;101561.25;5038707;28;45495;-74
2022/07/21 02:37:56;;;;;;;;;18.00;18.00;;;;;20.50;89.03;101558.75;5060351;28;45513;-75
2022/07/21 02:40:22;;;;;;;;;18.67;17.00;;;;;20.47;88.94;101551.09;5060016;28;46065;-75
2022/07/21 02:42:48;;;;;;;;;16.33;16.33;;;;;20.49;89.21;101560.63;5045792;28;45324;-74
2022/07/21 02:45:13;;;;;;;;;17.00;16.00;;;;;20.46;88.69;101558.34;5060592;28;45360;-74
2022/07/21 02:48:01;;;;;;;;;17.33;17.33;;;;;20.52;89.10;101576.38;5038639;28;45497;-75
2022/07/21 02:50:30;;;;;;;;;17.00;15.67;;;;;20.44;88.83;101563.97;5035296;28;48233;-74
2022/07/21 02:53:00;;;;;;;;;16.33;16.33;;;;;20.44;88.28;101563.97;5060103;28;45450;-74
2022/07/21 02:55:27;;;;;;;;;18.33;17.33;;;;;20.63;86.60;101566.75;5051455;28;45386;-75
2022/07/21 02:58:05;;;;;;;;;14.67;14.00;;;;;20.43;87.89;101562.34;5059907;28;45457;-74
2022/07/21 03:00:30;;;;;;;;;16.33;16.00;;;;;20.69;87.39;101567.72;5050868;28;46467;-75
2022/07/21 03:02:55;;;;;;;;;19.33;17.67;;;;;20.54;87.74;101566.19;5059699;28;45399;-74
2022/07/21 03:05:21;;;;;;;;;19.00;18.00;;;;;20.52;87.57;101556.66;5059930;28;45505;-74
2022/07/21 03:07:46;;;;;;;;;16.00;15.33;;;;;20.59;87.46;101567.41;5041500;28;45460;-74
2022/07/21 03:10:11;;;;;;;;;13.67;13.67;;;;;20.58;87.32;101560.31;5059790;28;45296;-75
2022/07/21 03:12:37;;;;;;;;;17.67;17.00;;;;;20.43;87.39;101548.84;5059859;28;45389;-75
2022/07/21 03:15:02;;;;;;;;;19.67;18.00;;;;;20.52;87.54;101568.28;5041947;28;45438;-74
2022/07/21 03:17:28;;;;;;;;;16.00;14.67;;;;;20.44;87.37;101566.69;5063245;28;45427;-74
2022/07/21 03:19:53;;;;;;;;;15.67;15.00;;;;;20.42;87.25;101565.25;5056090;28;47156;-75
2022/07/21 03:22:18;;;;;;;;;17.00;16.67;;;;;20.39;87.74;101561.13;5059882;28;45398;-74
2022/07/21 03:24:44;;;;;;;;;17.67;17.67;;;;;20.37;88.00;101568.59;5054214;28;45521;-74
2022/07/21 03:27:09;;;;;;;;;16.00;15.67;;;;;20.33;87.87;101569.28;5059623;28;45623;-74
2022/07/21 03:29:34;;;;;;;;;20.00;16.67;;;;;20.34;88.07;101569.06;5059599;28;45431;-74
2022/07/21 03:32:00;;;;;;;;;14.00;14.00;;;;;20.31;88.07;101567.63;5059388;28;45292;-75
2022/07/21 03:34:25;;;;;;;;;14.33;14.33;;;;;20.33;87.94;101580.06;5059788;28;45344;-75
2022/07/21 03:36:50;;;;;;;;;16.33;14.67;;;;;20.24;88.04;101566.84;5059431;28;45650;-74
2022/07/21 03:39:16;;;;;;;;;15.33;15.33;;;;;20.33;87.77;101582.75;5059068;28;46540;-74
2022/07/21 03:41:41;;;;;;;;;17.00;17.00;;;;;20.29;87.68;101583.19;5059670;28;45258;-74
2022/07/21 03:44:06;;;;;;;;;15.33;14.67;;;;;20.26;87.99;101577.44;5059387;28;45320;-75
2022/07/21 03:46:31;;;;;;;;;15.67;15.67;;;;;20.20;87.93;101572.91;5058654;28;45209;-75
2022/07/21 03:48:57;;;;;;;;;16.33;15.33;;;;;20.26;87.72;101583.63;5059282;28;45410;-74
2022/07/21 03:51:22;;;;;;;;;17.67;16.67;;;;;20.23;87.28;101581.38;5058937;28;45336;-74
2022/07/21 03:53:47;;;;;;;;;19.00;18.33;;;;;20.23;87.68;101578.66;5041261;28;45415;-74
2022/07/21 03:56:13;;;;;;;;;18.00;17.00;;;;;20.19;87.78;101574.75;5059066;28;45282;-75
2022/07/21 03:58:38;;;;;;;;;18.00;17.67;;;;;20.08;87.96;101573.59;5059078;28;46428;-75
2022/07/21 04:01:03;;;;;;;;;14.00;14.00;;;;;20.18;88.15;101594.72;5059020;28;45166;-74
2022/07/21 04:03:30;;;;;;;;;17.33;17.00;;;;;20.23;87.92;101596.75;5046856;28;45419;-75
2022/07/21 04:05:56;;;;;;;;;17.00;15.33;;;;;20.20;87.92;101592.59;5040815;28;46119;-75
2022/07/21 04:08:21;;;;;;;;;16.33;16.33;;;;;20.20;87.86;101594.50;5059064;28;45300;-75
2022/07/21 04:10:46;;;;;;;;;17.00;16.00;;;;;20.17;87.72;101590.34;5059012;28;45323;-75
2022/07/21 04:13:13;;;;;;;;;16.33;14.67;;;;;20.17;88.11;101598.44;5040823;28;45424;-75
2022/07/21 04:15:39;;;;;;;;;17.00;17.00;;;;;20.16;88.29;101604.88;5059448;28;45395;-75
2022/07/21 04:18:06;;;;;;;;;15.67;15.67;;;;;20.16;88.17;101597.63;5061718;28;46144;-75
2022/07/21 04:20:31;;;;;;;;;15.33;15.00;;;;;20.15;88.61;101598.69;5058732;28;45296;-73
2022/07/21 04:22:57;;;;;;;;;17.67;15.67;;;;;20.20;88.31;101608.78;5052586;28;45456;-73
2022/07/21 04:25:22;;;;;;;;;15.00;13.33;;;;;20.09;88.30;101596.84;5059004;28;45332;-74
2022/07/21 04:27:48;;;;;;;;;15.00;13.67;;;;;20.17;88.14;101614.63;5058812;28;45273;-74
2022/07/21 04:30:17;;;;;;;;;19.67;18.00;;;;;20.17;88.31;101604.66;5058674;28;45275;-74
2022/07/21 04:32:43;;;;;;;;;14.00;11.67;;;;;20.17;88.35;101610.06;5040792;28;45289;-75
2022/07/21 04:35:09;;;;;;;;;18.33;18.33;;;;;20.14;88.27;101613.19;5050027;28;46526;-74
2022/07/21 04:37:35;;;;;;;;;16.33;16.33;;;;;21.27;88.73;101619.72;5058554;28;45514;-75
2022/07/21 04:40:01;;;;;;;;;19.33;18.33;;;;;20.24;87.91;101623.53;5048937;28;45356;-75
2022/07/21 04:42:27;;;;;;;;;17.33;17.00;;;;;20.21;88.56;101618.56;5058484;28;45331;-75
2022/07/21 04:44:52;;;;;;;;;16.67;16.67;;;;;20.11;88.46;101621.72;5058602;28;46630;-75
2022/07/21 04:47:17;;;;;;;;;15.00;15.00;;;;;20.15;89.23;101619.44;5058430;28;45350;-75
2022/07/21 04:49:43;;;;;;;;;20.67;20.33;;;;;20.16;88.71;101624.59;5058516;28;45467;-74
2022/07/21 04:52:08;;;;;;;;;18.67;16.67;;;;;20.16;88.93;101629.16;5058458;28;45355;-75
2022/07/21 04:54:33;;;;;;;;;16.00;15.67;;;;;20.16;88.72;101631.88;5058375;28;45434;-75
2022/07/21 04:57:02;;;;;;;;;17.67;17.67;;;;;20.19;89.24;101634.13;5058605;28;45618;-75
2022/07/21 04:59:27;;;;;;;;;16.00;16.00;;;;;20.24;89.00;101642.41;5058262;28;45716;-75
2022/07/21 05:01:52;;;;;;;;;18.33;18.00;;;;;20.25;89.38;101627.03;5062062;28;45463;-75
2022/07/21 05:04:18;;;;;;;;;12.00;12.00;;;;;20.28;89.80;101627.44;5061857;28;45319;-75
2022/07/21 05:06:43;;;;;;;;;21.00;17.67;;;;;20.33;89.47;101634.88;5061659;28;45338;-75
2022/07/21 05:09:09;;;;;;;;;17.33;17.00;;;;;20.34;89.55;101643.78;5061751;28;45363;-73
2022/07/21 05:11:34;;;;;;;;;15.33;15.00;;;;;20.36;89.58;101636.31;5043709;28;45310;-75
2022/07/21 05:14:00;;;;;;;;;18.00;16.33;;;;;20.40;89.94;101634.81;5061835;28;45312;-75
2022/07/21 05:16:25;;;;;;;;;49.75;41.50;;;;;20.51;90.61;101631.44;5049083;28;46532;-78
2022/07/21 05:18:50;;;;;;;;;21.67;21.33;;;;;20.53;90.27;101626.63;5064467;28;45234;-78
2022/07/21 05:21:16;;;;;;;;;19.33;18.00;;;;;20.61;89.98;101630.09;5063712;28;45396;-77
2022/07/21 05:23:41;;;;;;;;;17.00;15.67;;;;;20.73;90.05;101641.84;5064318;28;45257;-78
2022/07/21 05:26:07;;;;;;;;;21.00;18.67;;;;;20.81;90.00;101636.16;5063508;28;45382;-77
2022/07/21 05:28:32;;;;;;;;;16.33;16.33;;;;;20.85;90.04;101641.09;5045436;28;45636;-78
2022/07/21 05:30:58;;;;;;;;;15.33;15.33;;;;;20.96;89.83;101643.13;5060005;28;45563;-77
2022/07/21 05:33:23;;;;;;;;;16.67;15.67;;;;;21.04;89.71;101644.72;5063298;28;45326;-78
2022/07/21 05:35:48;;;;;;;;;18.33;18.33;;;;;21.07;90.12;101633.44;5063312;28;46724;-77
2022/07/21 05:38:14;;;;;;;;;20.33;20.00;;;;;21.13;89.56;101639.84;5063778;28;45268;-77
2022/07/21 05:40:39;;;;;;;;;23.00;23.00;;;;;21.18;89.56;101635.44;5049160;28;45403;-78
2022/07/21 05:43:05;;;;;;;;;20.33;19.67;;;;;21.19;89.45;101647.88;5044992;28;45972;-77
2022/07/21 05:45:30;;;;;;;;;21.00;21.00;;;;;21.17;89.56;101643.75;5044658;28;48426;-78
2022/07/21 05:47:55;;;;;;;;;21.33;21.00;;;;;21.19;89.64;101645.19;5056463;28;45394;-78
2022/07/21 05:50:21;;;;;;;;;27.33;23.33;;;;;21.22;89.38;101649.31;5034091;28;45418;-77
2022/07/21 05:52:46;;;;;;;;;23.67;21.67;;;;;21.23;89.21;101647.44;5061442;28;45511;-77
2022/07/21 05:55:12;;;;;;;;;24.00;21.67;;;;;21.19;89.31;101647.06;5052288;28;45959;-77
2022/07/21 05:57:38;;;;;;;;;19.67;17.33;;;;;21.26;88.91;101660.50;5063060;28;45313;-77
2022/07/21 06:00:05;;;;;;;;;25.00;25.00;;;;;21.19;88.20;101653.28;5062760;28;45463;-78
2022/07/21 06:02:31;;;;;;;;;23.33;21.67;;;;;21.19;88.90;101655.19;5042116;28;47628;-77
2022/07/21 06:04:57;;;;;;;;;22.33;19.33;;;;;21.18;89.15;101651.66;5055929;28;45420;-78
2022/07/21 06:07:23;;;;;;;;;21.67;21.67;;;;;21.21;88.62;101663.03;5056061;28;45846;-78
2022/07/21 06:09:48;;;;;;;;;21.67;21.67;;;;;21.23;89.23;101655.53;5048409;28;45325;-77
2022/07/21 06:12:14;;;;;;;;;27.00;26.00;;;;;21.28;89.34;101664.63;5063228;28;45462;-78
2022/07/21 06:14:39;;;;;;;;;25.00;25.00;;;;;21.30;88.98;101659.84;5042141;28;48146;-77
2022/07/21 06:17:04;;;;;;;;;23.67;23.67;;;;;21.37;88.72;101667.06;5058381;28;45352;-78
2022/07/21 06:19:31;;;;;;;;;23.33;23.33;;;;;21.44;89.06;101676.75;5045901;28;45415;-78
2022/07/21 06:21:56;;;;;;;;;22.00;22.00;;;;;21.53;89.15;101676.44;5063936;28;45446;-77
2022/07/21 06:24:22;;;;;;;;;20.00;20.00;;;;;21.57;88.41;101675.75;5064058;28;45296;-77
2022/07/21 06:26:48;;;;;;;;;25.67;25.67;;;;;21.64;87.99;101680.28;5064746;28;45288;-78
2022/07/21 06:29:13;;;;;;;;;31.00;28.33;;;;;21.68;87.10;101681.47;5057156;28;45387;-78
2022/07/21 06:31:39;;;;;;;;;28.33;27.67;;;;;21.70;87.55;101674.78;5066181;28;45343;-78
2022/07/21 06:34:04;;;;;;;;;30.67;28.67;;;;;21.76;87.22;101680.38;5048468;28;45965;-78
2022/07/21 06:36:30;;;;;;;;;30.00;29.00;;;;;21.83;86.25;101678.41;5067149;28;45334;-78
2022/07/21 06:38:55;;;;;;;;;29.67;27.33;;;;;21.87;86.07;101678.75;5049863;28;45232;-78
2022/07/21 06:41:20;;;;;;;;;32.33;29.67;;;;;21.84;86.30;101676.53;5066485;28;45489;-78
2022/07/21 06:43:46;;;;;;;;;33.00;30.00;;;;;21.84;86.08;101671.13;5065644;28;45336;-78
2022/07/21 06:46:11;;;;;;;;;28.00;28.00;;;;;21.94;85.86;101676.81;5050924;28;45198;-78
2022/07/21 06:48:36;;;;;;;;;30.33;29.00;;;;;22.07;85.68;101684.75;5033458;28;45277;-78
2022/07/21 06:51:02;;;;;;;;;29.00;27.00;;;;;22.15;85.69;101686.28;5056297;28;45755;-78
2022/07/21 06:53:27;;;;;;;;;30.00;28.67;;;;;22.27;84.72;101675.50;5051700;28;45344;-77
2022/07/21 06:55:53;;;;;;;;;31.67;28.33;;;;;22.24;83.72;101670.56;5056575;28;45392;-78
2022/07/21 06:58:21;;;;;;;;;35.67;30.67;;;;;22.37;83.88;101677.69;5054769;28;45280;-77
2022/07/21 07:00:49;;;;;;;;;45.00;38.50;;;;;22.44;84.00;101677.56;5057581;28;45404;-78
2022/07/21 07:03:15;;;;;;;;;34.33;31.00;;;;;22.42;83.83;101675.09;5049577;28;46408;-78
2022/07/21 07:05:42;;;;;;;;;38.00;32.67;;;;;22.43;83.17;101670.50;5052809;28;45553;-77
2022/07/21 07:08:08;;;;;;;;;36.33;32.00;;;;;22.32;82.84;101661.28;5049591;28;45289;-77
2022/07/21 07:10:33;;;;;;;;;33.33;30.00;;;;;22.39;84.56;101670.13;5062467;28;45479;-77
2022/07/21 07:12:58;;;;;;;;;35.33;30.67;;;;;22.44;84.33;101672.16;5045868;28;47322;-77
2022/07/21 07:15:25;;;;;;;;;30.67;29.00;;;;;22.50;83.85;101676.63;5063594;28;45320;-77
2022/07/21 07:17:51;;;;;;;;;30.67;29.00;;;;;22.50;82.43;101673.94;5043023;28;45341;-77
2022/07/21 07:20:17;;;;;;;;;30.67;29.00;;;;;22.62;83.00;101678.59;5029325;28;46328;-77
2022/07/21 07:22:42;;;;;;;;;37.67;33.33;;;;;22.60;82.16;101668.00;5059052;28;46221;-77
2022/07/21 07:25:08;;;;;;;;;29.67;28.67;;;;;22.61;82.29;101661.50;5051441;28;45302;-77
2022/07/21 07:27:34;;;;;;;;;32.33;29.33;;;;;22.67;81.06;101671.41;5053387;28;45333;-77
2022/07/21 07:29:59;;;;;;;;;29.33;28.00;;;;;22.73;81.24;101666.09;5047746;28;45387;-76
2022/07/21 07:32:24;;;;;;;;;25.33;25.33;;;;;22.82;80.79;101676.38;5065170;28;46332;-77
2022/07/21 07:34:50;;;;;;;;;29.67;28.67;;;;;22.94;81.84;101670.13;5065776;28;45248;-76
2022/07/21 07:37:15;;;;;;;;;31.33;29.00;;;;;23.02;80.67;101672.47;5044952;28;45301;-76
2022/07/21 07:39:40;;;;;;;;;27.67;27.33;;;;;23.12;80.52;101674.59;5044402;28;47450;-76
2022/07/21 07:42:06;;;;;;;;;28.67;26.33;;;;;23.23;79.34;101672.13;5062114;28;46331;-76
2022/07/21 07:44:32;;;;;;;;;28.00;26.00;;;;;23.29;79.70;101666.56;5045167;28;45242;-76
2022/07/21 07:46:57;;;;;;;;;31.67;29.33;;;;;23.43;79.71;101674.47;5062529;28;45476;-76
2022/07/21 07:49:23;;;;;;;;;23.00;23.00;;;;;23.47;79.40;101675.66;5063642;28;45285;-77
2022/07/21 07:51:48;;;;;;;;;26.33;26.00;;;;;23.50;79.05;101680.63;5044124;28;47103;-76
2022/07/21 07:54:14;;;;;;;;;25.67;25.67;;;;;23.54;77.10;101678.22;5056896;28;46200;-76
2022/07/21 07:56:40;;;;;;;;;27.67;25.67;;;;;23.54;77.43;101676.34;5043417;28;45489;-76
2022/07/21 07:59:05;;;;;;;;;30.67;27.00;;;;;23.55;77.01;101679.88;5041514;28;46977;-75
2022/07/21 08:01:30;;;;;;;;;26.33;25.67;;;;;23.57;76.63;101670.44;5059595;28;46289;-77
2022/07/21 08:03:56;;;;;;;;;24.33;23.67;;;;;23.62;77.38;101677.03;5059705;28;45327;-75
2022/07/21 08:06:21;;;;;;;;;27.33;26.67;;;;;23.64;76.34;101675.72;5059774;28;45374;-75
2022/07/21 08:08:47;;;;;;;;;32.33;30.67;;;;;23.69;76.02;101685.88;5059489;28;45338;-75
2022/07/21 08:11:13;;;;;;;;;27.67;26.00;;;;;23.70;76.00;101679.38;5059416;28;46196;-76
2022/07/21 08:13:38;;;;;;;;;25.00;25.00;;;;;23.77;75.58;101693.66;5041375;28;45376;-75
2022/07/21 08:16:04;;;;;;;;;25.33;24.00;;;;;23.85;75.81;101699.75;5044619;28;45372;-75
2022/07/21 08:18:29;;;;;;;;;24.33;24.33;;;;;23.83;74.74;101698.09;5059469;28;45420;-76
2022/07/21 08:20:55;;;;;;;;;25.00;23.67;;;;;23.78;74.68;101683.59;5059185;28;45505;-76
2022/07/21 08:23:20;;;;;;;;;25.67;25.33;;;;;23.79;74.95;101683.34;5058804;28;45320;-76
2022/07/21 08:25:46;;;;;;;;;29.00;29.00;;;;;23.83;75.05;101689.94;5059452;28;45475;-75
2022/07/21 08:28:12;;;;;;;;;27.33;27.00;;;;;23.93;74.48;101693.94;5059837;28;45273;-77
2022/07/21 08:30:38;;;;;;;;;30.00;27.67;;;;;23.91;74.43;101694.16;5059293;28;45379;-76
2022/07/21 08:33:04;;;;;;;;;29.67;27.00;;;;;24.00;75.31;101691.88;5044802;28;45301;-75
2022/07/21 08:35:32;;;;;;;;;32.33;26.67;;;;;24.09;75.23;101697.75;5063032;28;45456;-75
2022/07/21 08:38:00;;;;;;;;;27.67;27.00;;;;;24.16;74.70;101692.22;5062828;28;45523;-76
2022/07/21 08:40:27;;;;;;;;;28.00;26.67;;;;;24.26;74.12;101695.13;5062473;28;46510;-75
2022/07/21 08:42:53;;;;;;;;;29.67;27.67;;;;;24.26;73.07;101683.41;5062991;28;45493;-75
2022/07/21 08:45:20;;;;;;;;;28.33;27.00;;;;;24.37;74.38;101700.72;5062738;28;45311;-75
2022/07/21 08:47:45;;;;;;;;;28.00;27.67;;;;;24.39;73.28;101687.75;5062289;28;45644;-75
2022/07/21 08:50:11;;;;;;;;;31.00;29.00;;;;;24.44;72.32;101693.25;5052275;28;47510;-76
2022/07/21 08:52:36;;;;;;;;;34.67;32.00;;;;;24.44;72.60;101699.50;5062310;28;45374;-76
2022/07/21 08:55:03;;;;;;;;;29.67;29.00;;;;;24.46;71.99;101694.66;5062424;28;45379;-75
2022/07/21 08:57:28;;;;;;;;;34.33;30.67;;;;;24.51;72.34;101693.09;5044061;28;46469;-75
2022/07/21 08:59:54;;;;;;;;;30.00;28.00;;;;;24.55;71.48;101686.09;5061991;28;45352;-75
2022/07/21 09:02:31;;;;;;;;;33.33;28.67;;;;;24.65;72.28;101702.56;5062180;28;45332;-76
2022/07/21 09:04:56;;;;;;;;;32.00;28.67;;;;;24.72;72.54;101696.97;5062269;28;45153;-75
2022/07/21 09:07:23;;;;;;;;;32.00;29.33;;;;;24.84;72.68;101688.72;5044119;28;45369;-75
2022/07/21 09:10:00;;;;;;;;;21.33;20.33;;;;;24.91;72.57;101700.31;5062162;28;45403;-76
2022/07/21 09:12:26;;;;;;;;;28.00;27.33;;;;;24.93;71.66;101708.22;5062365;28;45426;-75
2022/07/21 09:15:11;;;;;;;;;34.00;30.33;;;;;25.00;71.54;101706.13;5043558;28;45418;-76
2022/07/21 09:17:36;;;;;;;;;33.67;31.00;;;;;25.02;71.08;101697.75;5047924;28;47262;-78
2022/07/21 09:20:02;;;;;;;;;31.00;28.67;;;;;25.00;70.33;101689.00;5045187;28;47319;-75
2022/07/21 09:22:29;;;;;;;;;33.67;29.67;;;;;25.06;70.10;101691.56;5044243;28;45328;-75
2022/07/21 09:24:54;;;;;;;;;34.33;30.00;;;;;25.11;69.45;101690.78;5047604;28;45316;-75
2022/07/21 09:27:24;;;;;;;;;32.67;31.00;;;;;25.17;70.11;101703.38;5049619;28;46168;-76
2022/07/21 09:29:52;;;;;;;;;30.00;28.67;;;;;25.21;69.71;101687.41;5062384;28;45681;-75
2022/07/21 09:32:34;;;;;;;;;32.00;29.00;;;;;25.36;69.13;101700.38;5063443;28;45420;-75
2022/07/21 09:35:04;;;;;;;;;30.00;28.00;;;;;25.42;69.16;101698.56;5064664;28;45301;-76
2022/07/21 09:37:30;;;;;;;;;31.67;29.33;;;;;25.42;68.19;101687.66;5063342;28;45313;-77
2022/07/21 09:39:58;;;;;;;;;35.33;31.33;;;;;25.41;68.87;101686.03;5061560;28;45335;-75
2022/07/21 09:42:26;;;;;;;;;33.33;31.00;;;;;25.43;68.35;101695.59;5061146;28;45277;-75
2022/07/21 09:44:55;;;;;;;;;35.33;29.67;;;;;25.44;68.64;101701.84;5061214;28;45335;-75
2022/07/21 09:47:22;;;;;;;;;27.33;27.00;;;;;25.51;67.93;101699.75;5043134;28;45901;-75
2022/07/21 09:49:47;;;;;;;;;34.33;31.00;;;;;25.49;67.04;101696.47;5042698;28;47355;-75
2022/07/21 09:52:23;;;;;;;;;35.67;30.33;;;;;25.56;66.40;101699.81;5061295;28;45336;-75
2022/07/21 09:54:49;;;;;;;;;33.67;30.33;;;;;25.61;66.85;101696.38;5027311;28;45334;-75
2022/07/21 09:57:18;;;;;;;;;27.33;25.67;;;;;25.63;66.33;101693.41;5054775;28;45292;-75
2022/07/21 09:59:45;;;;;;;;;32.67;29.00;;;;;25.58;66.50;101691.41;5061002;28;45574;-75
2022/07/21 10:02:21;;;;;;;;;37.33;32.33;;;;;25.58;66.41;101694.94;5061145;28;45382;-75
2022/07/21 10:04:52;;;;;;;;;33.67;30.33;;;;;25.55;67.00;101694.63;5060670;28;45407;-75
2022/07/21 10:07:19;;;;;;;;;34.00;30.67;;;;;25.46;65.53;101692.34;5060844;28;45711;-75
2022/07/21 10:09:44;;;;;;;;;34.33;30.33;;;;;25.44;66.09;101688.25;5060540;28;46384;-75
2022/07/21 10:12:10;;;;;;;;;37.33;32.33;;;;;25.57;67.40;101690.59;5060911;28;45318;-75
2022/07/21 10:14:35;;;;;;;;;40.00;34.00;;;;;25.71;66.81;101690.25;5060949;28;45577;-75
2022/07/21 10:17:02;;;;;;;;;29.00;28.33;;;;;25.78;66.52;101693.59;5064443;28;45454;-75
2022/07/21 10:19:32;;;;;;;;;33.67;30.00;;;;;25.96;66.32;101697.88;5060681;28;46247;-75
2022/07/21 10:22:15;;;;;;;;;33.67;30.00;;;;;26.07;66.45;101697.97;5060553;28;45345;-75
2022/07/21 10:24:42;;;;;;;;;33.33;31.00;;;;;26.07;65.98;101692.53;5054819;28;45480;-75
2022/07/21 10:27:11;;;;;;;;;30.00;29.33;;;;;26.10;65.56;101695.56;5042463;28;46225;-76
2022/07/21 10:29:53;;;;;;;;;37.67;32.00;;;;;26.12;64.45;101689.03;5060627;28;45364;-75
2022/07/21 10:32:21;;;;;;;;;33.67;31.00;;;;;26.17;63.79;101692.63;5058610;28;45383;-75
2022/07/21 10:34:48;;;;;;;;;40.67;33.33;;;;;26.24;62.76;101689.69;5042785;28;45301;-76
2022/07/21 10:37:40;;;;;;;;;71.75;61.50;;;;;26.17;63.70;101697.25;5055789;28;45473;-75
2022/07/21 10:40:26;;;;;;;;;52.00;43.25;;;;;26.08;63.27;101694.19;5057028;28;45367;-75
2022/07/21 10:42:58;;;;;;;;;37.67;32.00;;;;;26.12;62.87;101695.28;5031654;28;45919;-75
2022/07/21 10:45:31;;;;;;;;;32.33;29.67;;;;;26.24;64.33;101695.13;5060482;28;45317;-75
2022/07/21 10:47:57;;;;;;;;;36.00;32.00;;;;;26.49;62.97;101691.06;5047125;28;45399;-75
2022/07/21 10:50:34;;;;;;;;;35.33;31.33;;;;;26.67;63.54;101705.38;5059991;28;45335;-75
2022/07/21 10:53:20;;;;;;;;;34.67;31.00;;;;;26.87;63.71;101692.97;5046973;28;45285;-76
2022/07/21 10:55:53;;;;;;;;;58.50;46.25;;;;;27.12;61.72;101692.34;5041644;28;45322;-75
2022/07/21 10:58:41;;;;;;;;;72.25;68.25;;;;;27.27;61.91;101694.34;5046981;28;47345;-75
2022/07/21 11:01:24;;;;;;;;;44.50;37.50;;;;;27.47;62.42;101693.59;5041794;28;47114;-75
2022/07/21 11:04:10;;;;;;;;;30.00;28.33;;;;;27.70;61.05;101693.44;5060020;28;45367;-75
2022/07/21 11:06:40;;;;;;;;;39.75;34.00;;;;;27.76;59.84;101684.16;5046598;28;45319;-76
2022/07/21 11:09:07;;;;;;;;;69.25;60.75;;;;;27.92;60.85;101684.22;5060271;28;45469;-76
2022/07/21 11:11:36;;;;;;;;;36.33;32.00;;;;;28.16;59.98;101678.25;5057851;28;48333;-75